Currituck — AEFR — position and weather

sailwx.info

Track history (hours):
 
Tides and Currents Weather Stations Pressure Air Temp Water Temp Dewpoint Dewpoint Depression Visibility Wind Speed Wind Dir Waves Ship Positions

Currituck

Last reported at 2017-Nov-11 18:50 UTC. Time now 2017-Nov-19 08:29 UTC.
Position N 36°54' W 076°05'.

Length 45 m; draft 2 m.

Type: Dredging. MMSI: 369970446.

Date/timePositionNaut miles runAvg speedWind from/ knotsBaromVisibWave heightAir tempDewpointWater temp
2017-Nov-11 18:50N 36°54' W 076°05'4 0.6
2017-Nov-11 12:30N 36°58' W 076°07'3 6.1
2017-Nov-11 12:00N 36°57' W 076°11'2 0.8
2017-Nov-11 09:49N 36°55' W 076°11'0 0.0
2017-Nov-11 09:30N 36°55' W 076°11'0 0.0
2017-Nov-11 08:57N 36°55' W 076°11'1 0.0
2017-Nov-10 18:10N 36°56' W 076°11'1 6.8
2017-Nov-10 17:58N 36°57' W 076°11'5 0.2
2017-Nov-09 17:05N 36°54' W 076°05'5 0.2
2017-Nov-08 15:59N 36°55' W 076°11'0 0.0
2017-Nov-08 05:31N 36°55' W 076°11'0 0.0
2017-Nov-08 05:06N 36°55' W 076°11'0 0.0
2017-Nov-08 05:00N 36°55' W 076°11'0 0.0
2017-Nov-08 03:46N 36°55' W 076°11'0 0.0
2017-Nov-08 03:30N 36°55' W 076°11'5 0.7
2017-Nov-07 20:28N 36°57' W 076°06'2 1.9
2017-Nov-07 19:20N 36°55' W 076°06'1 2.2
2017-Nov-07 18:59N 36°55' W 076°06'0 0.5
2017-Nov-07 18:26N 36°55' W 076°05'0 0.5
2017-Nov-07 18:01N 36°55' W 076°05'0 0.7
2017-Nov-07 17:30N 36°55' W 076°05'8 0.4
2017-Nov-06 20:35N 36°50' W 075°58'  
2017-Nov-03 14:19N 36°50' W 075°58'1 0.3
2017-Nov-03 12:33N 36°50' W 075°58'1 1.3
2017-Nov-03 12:06N 36°50' W 075°58'  
Track history (hours):
 
Tides and Currents Weather Stations Pressure Air Temp Water Temp Dewpoint Dewpoint Depression Visibility Wind Speed Wind Dir Waves Ship Positions

Currituck

Last reported at 2017-Nov-11 18:50 UTC. Time now 2017-Nov-19 08:29 UTC.
Position N 36°54' W 076°05'.

Length 45 m; draft 2 m.

Type: Dredging. MMSI: 369970446.

Date/timePositionNaut miles runAvg speedWind from/ knotsBaromVisibWave heightAir tempDewpointWater temp
2017-Nov-11 18:50N 36°54' W 076°05'4 0.6
2017-Nov-11 12:30N 36°58' W 076°07'3 6.1
2017-Nov-11 12:00N 36°57' W 076°11'2 0.8
2017-Nov-11 09:49N 36°55' W 076°11'0 0.0
2017-Nov-11 09:30N 36°55' W 076°11'0 0.0
2017-Nov-11 08:57N 36°55' W 076°11'1 0.0
2017-Nov-10 18:10N 36°56' W 076°11'1 6.8
2017-Nov-10 17:58N 36°57' W 076°11'5 0.2
2017-Nov-09 17:05N 36°54' W 076°05'5 0.2
2017-Nov-08 15:59N 36°55' W 076°11'0 0.0
2017-Nov-08 05:31N 36°55' W 076°11'0 0.0
2017-Nov-08 05:06N 36°55' W 076°11'0 0.0
2017-Nov-08 05:00N 36°55' W 076°11'0 0.0
2017-Nov-08 03:46N 36°55' W 076°11'0 0.0
2017-Nov-08 03:30N 36°55' W 076°11'5 0.7
2017-Nov-07 20:28N 36°57' W 076°06'2 1.9
2017-Nov-07 19:20N 36°55' W 076°06'1 2.2
2017-Nov-07 18:59N 36°55' W 076°06'0 0.5
2017-Nov-07 18:26N 36°55' W 076°05'0 0.5
2017-Nov-07 18:01N 36°55' W 076°05'0 0.7
2017-Nov-07 17:30N 36°55' W 076°05'8 0.4
2017-Nov-06 20:35N 36°50' W 075°58'  
2017-Nov-03 14:19N 36°50' W 075°58'1 0.3
2017-Nov-03 12:33N 36°50' W 075°58'1 1.3
2017-Nov-03 12:06N 36°50' W 075°58'  

Dump ship's entire track history